Time;durP1;ratioP1;P1;durP2;ratioP2;P2;SDS_P1;SDS_P2;PMS_P1;PMS_P2;Temp;Humidity;BMP_temperature;BMP_pressure;BME280_temperature;BME280_humidity;BME280_pressure;Samples;Min_cycle;Max_cycle;Signal;HPM_P1;HPM_P2
2022/10/04 00:02:32;;;;;;;76.75;18.40;;;11.00;99.90;;;;;;5044195;28;20311;-84
2022/10/04 00:05:03;;;;;;;77.80;15.15;;;11.00;99.90;;;;;;5044071;28;20184;-84
2022/10/04 00:07:37;;;;;;;72.30;15.60;;;11.00;99.90;;;;;;5044805;28;20153;-84
2022/10/04 00:10:09;;;;;;;77.65;16.42;;;11.10;99.90;;;;;;5028262;28;20221;-84
2022/10/04 00:12:45;;;;;;;82.03;18.23;;;11.10;99.90;;;;;;5046893;28;20184;-84
2022/10/04 00:15:47;;;;;;;72.45;16.08;;;11.10;99.90;;;;;;5045078;28;20612;-84
2022/10/04 00:18:13;;;;;;;70.95;15.15;;;11.10;99.90;;;;;;5004792;28;20205;-84
2022/10/04 00:20:52;;;;;;;72.43;15.20;;;11.20;99.90;;;;;;5038371;28;20177;-84
2022/10/04 00:23:23;;;;;;;74.85;16.58;;;11.20;99.90;;;;;;5047304;28;20171;-84
2022/10/04 00:25:58;;;;;;;73.45;16.55;;;11.20;99.90;;;;;;5045414;28;20193;-84
2022/10/04 00:28:24;;;;;;;74.00;16.13;;;11.20;99.90;;;;;;5045285;28;20203;-85
2022/10/04 00:31:08;;;;;;;74.43;15.90;;;11.20;99.90;;;;;;5046079;28;20158;-84
2022/10/04 00:33:50;;;;;;;75.30;15.57;;;11.10;99.90;;;;;;5046545;28;20219;-84
2022/10/04 00:36:24;;;;;;;72.80;15.23;;;11.10;99.90;;;;;;5046115;28;20157;-84
2022/10/04 00:39:05;;;;;;;74.40;19.17;;;11.10;99.90;;;;;;5045962;28;20254;-84
2022/10/04 00:41:49;;;;;;;76.10;16.30;;;11.00;99.90;;;;;;5046586;28;20176;-84
2022/10/04 00:44:18;;;;;;;74.03;16.15;;;11.00;99.90;;;;;;5046596;28;20162;-84
2022/10/04 00:46:50;;;;;;;73.82;15.80;;;11.00;99.90;;;;;;5046914;28;20169;-84
2022/10/04 00:49:19;;;;;;;73.65;16.63;;;11.00;99.90;;;;;;5046125;28;20177;-84
2022/10/04 00:51:54;;;;;;;72.13;16.50;;;11.10;99.90;;;;;;5027704;28;20173;-84
2022/10/04 00:54:52;;;;;;;76.05;17.65;;;11.10;99.90;;;;;;5045635;28;20204;-84
2022/10/04 00:57:31;;;;;;;73.40;18.33;;;11.10;99.90;;;;;;5037782;28;20186;-84
2022/10/04 01:00:02;;;;;;;75.80;16.63;;;11.10;99.90;;;;;;5028509;28;20164;-84
2022/10/04 01:02:44;;;;;;;73.82;16.52;;;11.10;99.90;;;;;;5026822;28;20206;-84
2022/10/04 01:05:16;;;;;;;75.00;18.23;;;11.00;99.90;;;;;;5046398;28;20173;-84
2022/10/04 01:07:49;;;;;;;73.32;17.05;;;11.00;99.90;;;;;;5046712;28;20182;-84
2022/10/04 01:10:30;;;;;;;71.38;15.68;;;11.00;99.90;;;;;;5046385;28;20161;-84
2022/10/04 01:12:55;;;;;;;77.18;15.23;;;11.00;99.90;;;;;;5028251;28;20157;-84
2022/10/04 01:15:48;;;;;;;74.10;16.27;;;11.00;99.90;;;;;;5046695;28;20165;-84
2022/10/04 01:18:29;;;;;;;72.38;14.82;;;11.00;99.90;;;;;;5028280;28;20212;-84
2022/10/04 01:21:20;;;;;;;79.13;17.70;;;10.90;99.90;;;;;;5045680;28;20215;-84
2022/10/04 01:23:48;;;;;;;74.82;16.10;;;10.90;99.90;;;;;;5046598;28;20157;-84
2022/10/04 01:26:29;;;;;;;78.65;16.50;;;10.90;99.90;;;;;;5027598;28;20208;-84
2022/10/04 01:29:14;;;;;;;74.97;16.92;;;10.80;99.90;;;;;;5045076;28;20181;-84
2022/10/04 01:31:47;;;;;;;75.72;17.35;;;10.80;99.90;;;;;;5045356;28;20521;-84
2022/10/04 01:34:16;;;;;;;76.75;20.98;;;10.90;99.90;;;;;;5045732;28;20224;-84
2022/10/04 01:36:45;;;;;;;75.85;17.70;;;10.80;99.90;;;;;;5027753;28;20168;-84
2022/10/04 01:39:13;;;;;;;78.45;18.77;;;10.80;99.90;;;;;;5045904;28;20272;-84
2022/10/04 01:41:39;;;;;;;72.90;18.80;;;10.80;99.90;;;;;;5045625;28;20240;-84
2022/10/04 01:44:08;;;;;;;74.88;18.83;;;10.80;99.90;;;;;;5045848;28;20174;-84
2022/10/04 01:46:36;;;;;;;78.05;19.35;;;10.80;99.90;;;;;;5027375;28;20180;-84
2022/10/04 01:49:06;;;;;;;78.50;17.65;;;10.80;99.90;;;;;;5046390;28;20181;-84
2022/10/04 01:51:42;;;;;;;79.72;18.05;;;10.80;99.90;;;;;;5044928;28;20207;-85
2022/10/04 01:54:17;;;;;;;77.25;21.70;;;10.90;99.90;;;;;;5043616;28;20153;-84
2022/10/04 01:57:14;;;;;;;76.20;16.27;;;10.90;99.90;;;;;;5044253;28;20149;-84
2022/10/04 01:59:56;;;;;;;72.07;16.15;;;10.90;99.90;;;;;;5043767;28;20200;-84
2022/10/04 02:02:30;;;;;;;72.18;15.60;;;10.90;99.90;;;;;;5027408;28;20196;-84
2022/10/04 02:04:58;;;;;;;76.25;19.27;;;10.90;99.90;;;;;;5045143;28;20197;-84
2022/10/04 02:07:28;;;;;;;75.07;21.15;;;10.90;99.90;;;;;;5027384;28;20266;-84
2022/10/04 02:09:58;;;;;;;74.40;18.52;;;10.90;99.90;;;;;;5045084;28;20541;-84
2022/10/04 02:12:27;;;;;;;75.28;19.38;;;10.90;99.90;;;;;;5046479;28;20162;-84
2022/10/04 02:14:54;;;;;;;77.90;20.83;;;10.90;99.90;;;;;;5028418;28;20175;-84
2022/10/04 02:17:30;;;;;;;75.38;20.88;;;10.80;99.90;;;;;;5046643;28;20553;-84
2022/10/04 02:19:58;;;;;;;78.18;19.38;;;10.80;99.90;;;;;;5031788;28;20190;-84
2022/10/04 02:22:25;;;;;;;77.88;21.63;;;10.70;99.90;;;;;;5049211;28;20169;-84
2022/10/04 02:24:53;;;;;;;72.88;19.77;;;10.70;99.90;;;;;;5049668;28;20186;-84
2022/10/04 02:27:24;;;;;;;73.80;20.30;;;10.70;99.90;;;;;;5049059;28;20165;-84
2022/10/04 02:29:50;;;;;;;74.47;19.75;;;10.60;99.90;;;;;;5048510;28;20153;-84
2022/10/04 02:35:02;;;;;;;83.20;18.60;;;10.60;99.90;;;;;;5047579;28;20202;-84
2022/10/04 02:37:29;;;;;;;74.65;19.70;;;10.50;99.90;;;;;;5049334;28;20166;-84
2022/10/04 02:40:07;;;;;;;77.68;17.40;;;10.50;99.90;;;;;;5047213;28;20369;-84
2022/10/04 02:42:38;;;;;;;84.20;19.08;;;10.60;99.90;;;;;;5030856;28;20161;-84
2022/10/04 02:45:22;;;;;;;75.03;21.33;;;10.60;99.90;;;;;;5049320;28;20177;-84
2022/10/04 02:48:00;;;;;;;73.70;19.15;;;10.60;99.90;;;;;;5047441;28;20253;-84
2022/10/04 02:50:32;;;;;;;73.47;19.13;;;10.50;99.90;;;;;;5048179;28;20631;-84
2022/10/04 02:53:13;;;;;;;74.75;20.42;;;10.40;99.90;;;;;;5047886;28;20192;-84
2022/10/04 02:55:40;;;;;;;75.25;19.50;;;10.40;99.90;;;;;;5029991;28;20165;-84
2022/10/04 02:58:09;;;;;;;79.20;18.40;;;10.40;99.90;;;;;;5048137;28;20275;-84
2022/10/04 03:00:48;;;;;;;77.50;18.42;;;10.40;99.90;;;;;;5030778;28;20264;-84
2022/10/04 03:03:16;;;;;;;81.43;21.30;;;10.40;99.90;;;;;;5030873;28;20674;-86
2022/10/04 03:05:46;;;;;;;80.30;20.75;;;10.40;99.90;;;;;;5047710;28;20193;-84
2022/10/04 03:08:13;;;;;;;80.45;21.88;;;10.40;99.90;;;;;;5047066;28;20189;-84
2022/10/04 03:10:42;;;;;;;74.20;18.73;;;10.40;99.90;;;;;;5047781;28;20599;-84
2022/10/04 03:13:08;;;;;;;75.57;18.92;;;10.40;99.90;;;;;;5047655;28;20639;-84
2022/10/04 03:15:34;;;;;;;78.75;20.30;;;10.40;99.90;;;;;;5046926;28;20168;-84
2022/10/04 03:18:02;;;;;;;75.20;21.17;;;10.40;99.90;;;;;;5047520;28;20185;-84
2022/10/04 03:20:28;;;;;;;77.78;20.13;;;10.40;99.90;;;;;;5047596;28;20768;-84
2022/10/04 03:22:55;;;;;;;75.33;19.47;;;10.30;99.90;;;;;;5029362;28;20173;-84
2022/10/04 03:25:41;;;;;;;76.90;20.95;;;10.30;99.90;;;;;;5046464;28;20553;-84
2022/10/04 03:28:07;;;;;;;77.32;17.98;;;10.20;99.90;;;;;;5045403;28;20544;-84
2022/10/04 03:30:34;;;;;;;76.47;20.67;;;10.20;99.90;;;;;;5029628;28;20173;-84
2022/10/04 03:33:01;;;;;;;79.07;21.42;;;10.20;99.90;;;;;;5046780;28;20459;-84
2022/10/04 03:35:28;;;;;;;84.70;22.27;;;10.20;99.90;;;;;;5046968;28;20161;-84
2022/10/04 03:37:56;;;;;;;74.30;18.63;;;10.20;99.90;;;;;;5028928;28;20193;-84
2022/10/04 03:40:27;;;;;;;76.53;20.42;;;10.10;99.90;;;;;;5029028;28;20529;-85
2022/10/04 03:42:54;;;;;;;75.53;18.20;;;10.10;99.90;;;;;;5046424;28;20189;-85
2022/10/04 03:45:22;;;;;;;75.65;20.45;;;10.00;99.90;;;;;;5046478;28;20200;-84
2022/10/04 03:47:50;;;;;;;80.97;20.15;;;10.00;99.90;;;;;;5028295;28;20235;-84
2022/10/04 03:50:28;;;;;;;76.35;18.85;;;9.90;99.90;;;;;;5044292;28;20161;-84
2022/10/04 03:52:58;;;;;;;79.75;17.45;;;10.00;99.90;;;;;;5046468;28;20150;-84
2022/10/04 03:55:32;;;;;;;79.93;21.23;;;10.00;99.90;;;;;;5047271;28;20637;-84
2022/10/04 03:57:59;;;;;;;75.63;19.63;;;10.00;99.90;;;;;;5047209;28;20193;-84
2022/10/04 04:00:25;;;;;;;75.43;20.75;;;10.00;99.90;;;;;;5027006;28;20169;-84
2022/10/04 04:03:02;;;;;;;77.32;19.42;;;10.10;99.90;;;;;;5046112;28;20212;-84
2022/10/04 04:05:30;;;;;;;75.47;17.65;;;10.00;99.90;;;;;;5047070;28;20600;-84
2022/10/04 04:08:11;;;;;;;80.43;18.30;;;10.00;99.90;;;;;;5028240;28;20185;-84
2022/10/04 04:10:40;;;;;;;73.93;17.42;;;9.90;99.90;;;;;;5045468;28;20177;-84
2022/10/04 04:13:28;;;;;;;75.68;17.05;;;9.90;99.90;;;;;;5045979;28;20165;-84
2022/10/04 04:15:55;;;;;;;79.53;17.90;;;9.90;99.90;;;;;;5046625;28;20169;-84
2022/10/04 04:18:23;;;;;;;75.50;18.42;;;9.90;99.90;;;;;;5045008;28;20193;-84
2022/10/04 04:20:52;;;;;;;75.60;18.42;;;9.80;99.90;;;;;;5046880;28;20172;-84
2022/10/04 04:23:35;;;;;;;79.38;18.92;;;9.90;99.90;;;;;;5028938;28;20233;-84
2022/10/04 04:26:26;;;;;;;75.32;18.20;;;9.90;99.90;;;;;;5027720;28;20220;-84
2022/10/04 04:29:21;;;;;;;73.72;16.15;;;9.90;99.90;;;;;;5045498;28;20184;-84
2022/10/04 04:32:13;;;;;;;75.30;17.30;;;9.90;99.90;;;;;;5014286;28;20169;-84
2022/10/04 04:35:06;;;;;;;78.25;20.30;;;9.80;99.90;;;;;;5045824;28;20146;-84
2022/10/04 04:37:37;;;;;;;76.80;17.52;;;9.80;99.90;;;;;;5027546;28;20157;-84
2022/10/04 04:40:23;;;;;;;76.57;16.55;;;9.80;99.90;;;;;;5043854;28;20722;-84
2022/10/04 04:42:49;;;;;;;81.65;18.23;;;9.80;99.90;;;;;;5043988;28;20157;-84
2022/10/04 04:45:24;;;;;;;78.07;21.13;;;9.80;99.90;;;;;;5044580;28;20193;-84
2022/10/04 04:47:57;;;;;;;72.82;16.50;;;9.80;99.90;;;;;;5028211;28;20195;-84
2022/10/04 04:50:31;;;;;;;74.75;18.15;;;9.80;99.90;;;;;;5046432;28;20200;-84
2022/10/04 04:53:13;;;;;;;76.93;16.42;;;9.70;99.90;;;;;;5028427;28;20163;-84
2022/10/04 04:55:46;;;;;;;76.05;20.52;;;9.70;99.90;;;;;;5046251;28;20161;-84
2022/10/04 04:58:22;;;;;;;76.70;17.50;;;9.60;99.90;;;;;;5046661;28;20176;-84
2022/10/04 05:03:18;;;;;;;77.75;21.10;;;9.70;99.90;;;;;;4999743;28;20210;-85
2022/10/04 05:05:49;;;;;;;84.95;21.05;;;9.60;99.90;;;;;;5000791;28;20186;-85
2022/10/04 05:08:18;;;;;;;76.60;17.20;;;9.70;99.90;;;;;;5000684;28;20179;-85
2022/10/04 05:11:07;;;;;;;78.50;18.00;;;9.70;99.90;;;;;;5015545;28;20270;-85
2022/10/04 05:13:41;;;;;;;81.65;21.65;;;9.70;99.90;;;;;;5000423;28;20163;-85
2022/10/04 05:16:21;;;;;;;78.32;19.23;;;9.70;99.90;;;;;;5001793;28;20304;-85
2022/10/04 05:18:47;;;;;;;79.78;20.45;;;9.70;99.90;;;;;;5001419;28;20194;-85
2022/10/04 05:21:32;;;;;;;77.93;19.58;;;9.60;99.90;;;;;;5001239;28;20193;-85
2022/10/04 05:24:11;;;;;;;82.20;23.40;;;9.70;99.90;;;;;;5001076;28;20158;-86
2022/10/04 05:26:37;;;;;;;79.20;24.65;;;9.60;99.90;;;;;;5002020;28;20182;-85
2022/10/04 05:29:16;;;;;;;84.67;32.10;;;9.50;99.90;;;;;;5002130;28;20245;-85
2022/10/04 05:32:00;;;;;;;83.50;29.60;;;9.50;99.90;;;;;;5001377;28;20410;-85
2022/10/04 05:34:29;;;;;;;94.72;31.45;;;9.50;99.90;;;;;;5004003;28;20155;-85
2022/10/04 05:37:27;;;;;;;90.50;31.50;;;9.60;99.90;;;;;;5001217;28;20166;-85
2022/10/04 05:40:04;;;;;;;91.68;35.50;;;9.50;99.90;;;;;;5001374;28;20139;-86
2022/10/04 05:42:44;;;;;;;90.25;36.67;;;9.50;99.90;;;;;;5003289;28;20155;-86
2022/10/04 05:45:19;;;;;;;91.80;35.83;;;9.60;99.90;;;;;;5003169;28;20745;-86
2022/10/04 05:47:56;;;;;;;89.57;36.22;;;9.60;99.90;;;;;;5002144;28;20178;-86
2022/10/04 05:50:28;;;;;;;93.28;39.70;;;9.60;99.90;;;;;;5000940;28;20159;-86
2022/10/04 05:53:13;;;;;;;89.47;38.20;;;9.60;99.90;;;;;;5006202;28;20159;-86
2022/10/04 05:55:51;;;;;;;89.95;38.83;;;9.60;99.90;;;;;;5020825;28;20159;-86
2022/10/04 05:58:50;;;;;;;89.32;39.60;;;9.70;99.90;;;;;;5005577;28;20194;-86
2022/10/04 06:01:37;;;;;;;89.32;38.33;;;9.70;99.90;;;;;;5005726;28;20182;-86
2022/10/04 06:04:11;;;;;;;89.05;35.75;;;9.70;99.90;;;;;;5005459;28;20180;-86
2022/10/04 06:06:39;;;;;;;93.75;37.30;;;9.70;99.90;;;;;;5019350;28;20221;-86
2022/10/04 06:09:17;;;;;;;96.75;42.00;;;9.70;99.90;;;;;;5003885;28;20182;-86
2022/10/04 06:12:08;;;;;;;93.53;42.10;;;9.70;99.90;;;;;;5004245;28;20503;-86
2022/10/04 06:14:40;;;;;;;91.47;39.70;;;9.80;99.90;;;;;;5003974;28;20162;-86
2022/10/04 06:17:15;;;;;;;96.00;40.25;;;9.70;99.90;;;;;;5002599;28;20165;-86
2022/10/04 06:20:05;;;;;;;90.15;37.15;;;9.80;99.90;;;;;;5004106;28;20260;-86
2022/10/04 06:22:32;;;;;;;87.85;38.85;;;9.90;99.90;;;;;;5004570;28;20570;-86
2022/10/04 06:25:09;;;;;;;112.15;90.18;;;9.90;99.90;;;;;;5002885;28;20436;-86
2022/10/04 06:27:56;;;;;;;95.00;56.42;;;9.90;99.90;;;;;;5003919;28;20393;-85
2022/10/04 06:30:23;;;;;;;91.30;43.67;;;10.00;99.90;;;;;;5003705;28;20147;-85
2022/10/04 06:33:00;;;;;;;91.55;41.17;;;10.00;99.90;;;;;;5003066;28;20170;-86
2022/10/04 06:35:29;;;;;;;89.75;33.72;;;10.00;99.90;;;;;;5003166;28;20162;-86
2022/10/04 06:38:08;;;;;;;94.10;34.35;;;10.10;99.90;;;;;;5002759;28;20265;-86
2022/10/04 06:40:43;;;;;;;83.53;32.17;;;10.00;99.90;;;;;;5018467;28;20249;-85
2022/10/04 06:43:22;;;;;;;89.45;30.27;;;10.00;99.90;;;;;;5003414;28;20162;-86
2022/10/04 06:46:17;;;;;;;90.07;37.83;;;10.00;99.90;;;;;;5018374;28;20194;-85
2022/10/04 06:49:19;;;;;;;91.05;31.15;;;10.10;99.90;;;;;;5000343;28;20200;-86
2022/10/04 06:52:10;;;;;;;85.90;30.23;;;10.10;99.90;;;;;;5004156;28;20151;-86
2022/10/04 06:55:12;;;;;;;94.22;31.73;;;10.20;99.90;;;;;;5004274;28;20155;-86
2022/10/04 06:57:57;;;;;;;88.90;35.83;;;10.20;99.90;;;;;;5018505;28;20182;-86
2022/10/04 07:00:25;;;;;;;88.72;34.53;;;10.30;99.90;;;;;;5002774;28;20189;-85
2022/10/04 07:03:15;;;;;;;92.57;32.13;;;10.40;99.90;;;;;;5002774;28;20261;-86
2022/10/04 07:06:03;;;;;;;88.70;32.20;;;10.50;99.90;;;;;;5003020;28;20610;-86
2022/10/04 07:08:35;;;;;;;83.95;26.13;;;10.60;99.90;;;;;;5002358;28;20273;-86
2022/10/04 07:11:20;;;;;;;88.47;25.95;;;10.70;99.90;;;;;;5017968;28;20526;-85
2022/10/04 07:14:01;;;;;;;86.30;30.20;;;10.70;99.90;;;;;;5001528;28;20154;-86
2022/10/04 07:17:01;;;;;;;83.72;27.92;;;10.60;99.90;;;;;;5003480;28;20626;-86
2022/10/04 07:19:41;;;;;;;84.70;29.27;;;10.60;99.90;;;;;;5002946;28;20248;-86
2022/10/04 07:22:06;;;;;;;86.20;28.13;;;10.60;99.90;;;;;;5003817;28;20154;-86
2022/10/04 07:24:52;;;;;;;82.17;25.17;;;10.60;99.90;;;;;;5003247;28;20166;-86
2022/10/04 07:27:26;;;;;;;84.63;31.25;;;10.80;99.90;;;;;;5003453;28;20382;-86
2022/10/04 07:29:54;;;;;;;86.43;30.77;;;10.90;99.90;;;;;;5018299;28;20159;-85
2022/10/04 07:32:33;;;;;;;81.90;28.98;;;10.90;99.90;;;;;;5003616;28;20194;-86
2022/10/04 07:35:34;;;;;;;84.45;27.67;;;10.90;99.90;;;;;;5002799;28;20169;-86
2022/10/04 07:38:16;;;;;;;77.65;21.33;;;10.90;99.90;;;;;;5003308;28;20249;-86
2022/10/04 07:41:24;;;;;;;80.85;22.90;;;11.00;99.90;;;;;;5000935;28;20223;-86
2022/10/04 07:44:19;;;;;;;79.25;21.85;;;11.10;99.90;;;;;;5002014;28;20182;-86
2022/10/04 07:46:48;;;;;;;77.70;18.00;;;11.10;99.90;;;;;;4949872;28;20402;-86
2022/10/04 07:49:16;;;;;;;81.10;22.33;;;11.20;99.90;;;;;;5002757;28;20178;-86
2022/10/04 07:51:44;;;;;;;76.57;18.83;;;11.20;99.90;;;;;;5002472;28;20194;-86
2022/10/04 07:54:34;;;;;;;75.18;22.70;;;11.10;99.90;;;;;;5002578;28;20176;-86
2022/10/04 07:57:10;;;;;;;78.90;25.83;;;11.10;99.90;;;;;;5002464;28;20596;-86
2022/10/04 08:00:06;;;;;;;78.72;29.25;;;11.10;99.90;;;;;;5001146;28;20194;-86
2022/10/04 08:02:42;;;;;;;80.35;25.02;;;11.20;99.90;;;;;;4991366;28;20225;-85
2022/10/04 08:05:35;;;;;;;74.80;17.73;;;11.20;99.90;;;;;;5002102;28;20220;-86
2022/10/04 08:08:21;;;;;;;74.63;20.65;;;11.40;99.90;;;;;;5001393;28;20686;-85
2022/10/04 08:11:06;;;;;;;75.28;15.55;;;11.30;99.90;;;;;;5002500;28;20226;-86
2022/10/04 08:13:46;;;;;;;77.88;16.15;;;11.40;99.90;;;;;;5000914;28;20198;-85
2022/10/04 08:16:36;;;;;;;78.75;16.45;;;11.40;99.90;;;;;;5001706;28;20173;-85
2022/10/04 08:19:32;;;;;;;74.90;13.30;;;11.40;99.90;;;;;;4994157;28;20209;-85
2022/10/04 08:22:09;;;;;;;78.47;13.77;;;11.50;99.90;;;;;;5001136;28;20606;-85
2022/10/04 08:24:49;;;;;;;72.07;11.88;;;11.50;99.90;;;;;;5001042;28;20165;-85
2022/10/04 08:27:32;;;;;;;74.85;14.65;;;11.50;99.90;;;;;;5001954;28;20147;-86
2022/10/04 08:30:03;;;;;;;72.97;12.38;;;11.50;99.90;;;;;;5001170;28;20186;-85
2022/10/04 08:32:42;;;;;;;74.55;14.27;;;11.50;99.90;;;;;;5001260;28;20182;-86
2022/10/04 08:35:32;;;;;;;72.22;13.88;;;11.60;99.90;;;;;;5001008;28;20155;-85
2022/10/04 08:38:20;;;;;;;75.05;14.43;;;11.60;99.90;;;;;;5001232;28;20274;-85
2022/10/04 08:41:30;;;;;;;74.45;17.85;;;11.70;99.90;;;;;;5000376;28;20228;-85
2022/10/04 08:44:28;;;;;;;74.88;16.25;;;11.70;99.90;;;;;;5000979;28;20632;-85
2022/10/04 08:47:20;;;;;;;83.63;18.58;;;11.70;99.90;;;;;;5000822;28;20638;-85
2022/10/04 08:50:08;;;;;;;79.68;20.23;;;11.80;99.90;;;;;;5002002;28;20174;-85
2022/10/04 08:53:17;;;;;;;81.95;27.10;;;11.90;99.90;;;;;;5002449;28;20170;-85
2022/10/04 08:56:16;;;;;;;83.65;31.80;;;12.00;99.90;;;;;;4989089;28;20237;-85
2022/10/04 08:59:19;;;;;;;82.30;30.20;;;11.90;99.90;;;;;;4986523;28;20245;-85
2022/10/04 09:02:08;;;;;;;85.25;33.63;;;11.90;99.90;;;;;;4999832;28;20325;-85
2022/10/04 09:04:43;;;;;;;84.20;27.13;;;12.00;99.90;;;;;;4999742;28;20209;-85
2022/10/04 09:07:28;;;;;;;84.88;33.78;;;12.10;99.90;;;;;;4999799;28;20150;-85
2022/10/04 09:10:21;;;;;;;77.72;24.17;;;12.20;99.90;;;;;;4999262;28;20151;-85
2022/10/04 09:13:21;;;;;;;81.57;23.55;;;12.30;99.90;;;;;;5014909;28;20150;-85
2022/10/04 09:16:14;;;;;;;81.43;21.98;;;12.40;99.90;;;;;;4999790;28;20151;-85
2022/10/04 09:18:48;;;;;;;79.75;15.77;;;12.50;99.90;;;;;;5000012;28;20190;-85
2022/10/04 09:21:36;;;;;;;76.43;16.40;;;12.60;99.90;;;;;;4999373;28;20169;-85
2022/10/04 09:24:30;;;;;;;77.38;15.60;;;12.80;99.90;;;;;;4999512;28;20622;-85
2022/10/04 09:27:24;;;;;;;75.30;13.95;;;12.90;99.90;;;;;;5002938;28;20178;-85
2022/10/04 09:30:07;;;;;;;75.13;15.75;;;13.00;99.90;;;;;;5003345;28;20221;-85
2022/10/04 09:32:39;;;;;;;75.18;14.90;;;13.00;99.90;;;;;;5002944;28;20226;-85
2022/10/04 09:35:30;;;;;;;74.27;13.57;;;13.20;99.90;;;;;;5018099;28;20250;-85
2022/10/04 09:38:04;;;;;;;76.05;13.00;;;13.20;99.90;;;;;;5002866;28;20417;-85
2022/10/04 09:40:50;;;;;;;76.13;15.07;;;13.30;99.90;;;;;;5002843;28;20269;-85
2022/10/04 09:43:37;;;;;;;75.80;10.87;;;13.40;99.90;;;;;;5003037;28;20374;-85
2022/10/04 09:46:30;;;;;;;73.90;10.57;;;13.70;99.90;;;;;;5002627;28;20488;-85
2022/10/04 09:49:50;;;;;;;78.10;9.98;;;13.90;99.90;;;;;;5002549;28;20186;-85
2022/10/04 09:52:40;;;;;;;76.15;8.60;;;14.00;99.90;;;;;;4942535;29;20172;-85
2022/10/04 09:55:15;;;;;;;73.73;8.90;;;14.20;99.90;;;;;;5017534;28;20221;-85
2022/10/04 09:58:18;;;;;;;73.73;10.80;;;14.40;99.90;;;;;;5001746;28;20999;-84
2022/10/04 10:01:11;;;;;;;74.47;9.57;;;14.60;99.90;;;;;;5002130;28;20408;-85
2022/10/04 10:03:42;;;;;;;73.80;8.53;;;14.80;99.90;;;;;;5002070;28;20956;-85
2022/10/04 10:06:07;;;;;;;69.60;7.70;;;15.10;99.90;;;;;;5016751;28;20452;-85
2022/10/04 10:08:54;;;;;;;69.27;7.97;;;15.10;99.90;;;;;;5002107;28;20421;-85
2022/10/04 10:14:53;;;;;;;76.93;8.23;;;15.30;99.90;;;;;;5002266;28;20440;-85
2022/10/04 10:17:38;;;;;;;69.40;7.30;;;15.20;99.90;;;;;;5001493;28;20393;-84
2022/10/04 10:20:38;;;;;;;71.70;8.30;;;15.50;99.90;;;;;;5001717;28;20380;-85
2022/10/04 10:23:44;;;;;;;73.30;7.60;;;15.60;99.90;;;;;;5016334;28;20410;-85
2022/10/04 10:26:37;;;;;;;69.90;8.50;;;15.70;99.90;;;;;;5000234;28;20630;-85
2022/10/04 10:29:31;;;;;;;69.67;9.83;;;15.90;91.90;;;;;;5016271;28;20429;-84
2022/10/04 10:32:14;;;;;;;71.77;12.07;;;16.00;96.70;;;;;;5015928;28;20404;-85
2022/10/04 10:35:11;;;;;;;70.10;11.67;;;16.30;90.90;;;;;;5001524;28;20397;-85
2022/10/04 10:37:48;;;;;;;71.70;11.60;;;16.20;87.60;;;;;;4971498;28;20401;-84
2022/10/04 10:40:53;;;;;;;71.67;16.20;;;16.40;90.60;;;;;;5000478;28;20404;-84
2022/10/04 10:43:42;;;;;;;73.10;19.23;;;16.70;84.50;;;;;;5001129;28;20383;-85
2022/10/04 10:46:20;;;;;;;73.77;17.23;;;16.90;75.20;;;;;;4972751;28;20558;-84
2022/10/04 10:49:23;;;;;;;71.80;12.97;;;17.10;68.20;;;;;;5015509;28;20807;-85
2022/10/04 10:52:21;;;;;;;71.30;13.47;;;17.10;59.60;;;;;;5000772;28;20458;-85
2022/10/04 10:55:14;;;;;;;74.20;10.30;;;17.10;69.60;;;;;;5015380;28;20407;-84
2022/10/04 10:58:17;;;;;;;71.07;8.73;;;17.10;64.10;;;;;;5000174;28;20417;-84
2022/10/04 11:00:52;;;;;;;69.13;6.30;;;17.30;58.60;;;;;;5000790;28;20470;-85
2022/10/04 11:03:49;;;;;;;71.27;6.53;;;17.30;49.30;;;;;;5121980;22;20875;-83
2022/10/04 11:06:40;;;;;;;68.83;7.30;;;17.20;54.50;;;;;;5004858;28;20460;-83
2022/10/04 11:09:21;;;;;;;69.20;6.57;;;17.50;64.90;;;;;;5041475;28;20759;-83
2022/10/04 11:12:25;;;;;;;68.30;5.90;;;17.70;42.20;;;;;;5024073;28;20497;-83
2022/10/04 11:15:07;;;;;;;73.17;6.50;;;17.50;38.60;;;;;;5024545;28;20438;-83
2022/10/04 11:18:16;;;;;;;69.77;6.10;;;17.50;43.30;;;;;;5041623;28;20479;-83
2022/10/04 11:21:27;;;;;;;68.37;6.50;;;17.50;49.60;;;;;;4999610;28;20445;-83
2022/10/04 11:24:17;;;;;;;70.07;6.43;;;17.80;49.10;;;;;;4986483;28;20483;-83
2022/10/04 11:26:57;;;;;;;68.80;6.37;;;17.80;46.00;;;;;;5022917;28;20459;-83
2022/10/04 11:29:45;;;;;;;68.03;5.70;;;17.90;48.40;;;;;;5041832;28;20420;-83
2022/10/04 11:32:23;;;;;;;70.87;6.80;;;18.20;38.10;;;;;;5023443;28;20431;-83
2022/10/04 11:35:25;;;;;;;79.53;6.33;;;18.40;33.70;;;;;;5041449;28;20388;-83
2022/10/04 11:38:29;;;;;;;76.60;7.00;;;18.30;38.50;;;;;;5027565;28;20430;-83
2022/10/04 11:41:09;;;;;;;70.93;6.30;;;18.30;30.50;;;;;;5040965;28;20386;-82
2022/10/04 11:44:06;;;;;;;72.27;7.70;;;18.60;31.80;;;;;;5040479;28;20388;-82
2022/10/04 11:46:33;;;;;;;73.37;7.40;;;19.10;26.30;;;;;;5023269;28;20451;-82
2022/10/04 11:49:23;;;;;;;68.80;6.17;;;19.20;26.50;;;;;;5022622;28;20521;-83
2022/10/04 11:52:04;;;;;;;71.47;6.97;;;19.00;21.10;;;;;;5022686;28;20822;-83
2022/10/04 11:55:03;;;;;;;68.87;5.20;;;19.00;22.80;;;;;;5040658;28;20380;-82
2022/10/04 11:58:01;;;;;;;71.60;6.60;;;19.40;25.80;;;;;;5000754;28;20396;-83
2022/10/04 12:01:09;;;;;;;70.07;5.80;;;19.00;13.30;;;;;;5022520;28;20768;-82
2022/10/04 12:03:56;;;;;;;69.07;5.80;;;19.00;18.50;;;;;;5004425;28;20409;-82
2022/10/04 12:06:34;;;;;;;72.40;6.27;;;19.00;16.30;;;;;;5040401;28;20485;-82
2022/10/04 12:09:04;;;;;;;71.70;5.60;;;18.90;13.40;;;;;;5040350;28;20779;-84
2022/10/04 12:14:47;;;;;;;73.30;5.57;;;19.20;16.50;;;;;;5019038;28;20419;-83
2022/10/04 12:17:45;;;;;;;69.67;5.40;;;19.30;17.40;;;;;;5021918;28;20818;-82
2022/10/04 12:20:52;;;;;;;67.27;4.97;;;19.40;15.80;;;;;;5040284;28;20377;-83
2022/10/04 12:23:20;;;;;;;68.97;5.30;;;19.00;11.00;;;;;;5022244;28;20484;-83
2022/10/04 12:26:06;;;;;;;67.73;4.97;;;19.10;20.50;;;;;;5021729;28;20448;-82
2022/10/04 12:29:09;;;;;;;75.30;7.57;;;19.40;16.70;;;;;;5040250;28;20439;-83
2022/10/04 12:31:57;;;;;;;70.17;6.60;;;19.50;11.10;;;;;;5042421;28;20403;-82
2022/10/04 12:34:35;;;;;;;68.23;6.23;;;19.30;9.90;;;;;;5023527;28;20397;-82
2022/10/04 12:37:25;;;;;;;68.80;6.80;;;19.20;13.00;;;;;;5021667;28;20399;-83
2022/10/04 12:40:02;;;;;;;68.10;7.23;;;19.40;8.80;;;;;;5022591;28;20850;-83
2022/10/04 12:42:48;;;;;;;70.23;5.73;;;19.30;9.10;;;;;;5040875;28;20384;-83
2022/10/04 12:45:28;;;;;;;68.87;5.97;;;19.20;9.20;;;;;;5042504;28;20490;-84
2022/10/04 12:48:16;;;;;;;71.17;7.60;;;19.20;8.70;;;;;;5041021;28;20416;-83
2022/10/04 12:51:24;;;;;;;69.40;5.90;;;19.20;8.20;;;;;;5022858;28;20527;-83
2022/10/04 12:54:15;;;;;;;71.43;5.30;;;19.10;10.60;;;;;;5022761;28;20503;-82
2022/10/04 12:56:49;;;;;;;68.10;5.40;;;19.10;14.10;;;;;;5040670;28;20391;-83
2022/10/04 12:59:26;;;;;;;73.30;4.57;;;19.10;13.70;;;;;;5038950;28;20416;-83
2022/10/04 13:02:10;;;;;;;68.47;5.13;;;19.10;17.40;;;;;;5021957;28;20423;-83
2022/10/04 13:04:44;;;;;;;70.07;6.07;;;19.30;17.20;;;;;;5022161;28;20496;-83
2022/10/04 13:07:31;;;;;;;72.27;5.70;;;19.30;13.40;;;;;;5021931;28;20415;-83
2022/10/04 13:10:13;;;;;;;69.00;6.77;;;19.10;14.80;;;;;;5039529;28;20880;-83
2022/10/04 13:13:07;;;;;;;71.83;5.60;;;19.00;11.80;;;;;;5039593;28;20855;-82
2022/10/04 13:16:04;;;;;;;71.47;6.03;;;19.00;18.40;;;;;;5038913;28;20458;-83
2022/10/04 13:18:36;;;;;;;70.50;5.90;;;19.10;20.30;;;;;;5021308;28;20428;-82
2022/10/04 13:21:03;;;;;;;70.90;8.20;;;19.20;20.20;;;;;;5039448;28;20392;-82
2022/10/04 13:23:55;;;;;;;68.80;6.03;;;19.40;18.00;;;;;;5020857;28;20411;-82
2022/10/04 13:26:27;;;;;;;71.93;7.10;;;19.40;16.50;;;;;;5014318;28;20459;-82
2022/10/04 13:29:09;;;;;;;72.23;4.90;;;19.20;12.80;;;;;;5039578;28;20420;-83
2022/10/04 13:31:40;;;;;;;73.83;7.00;;;19.20;17.30;;;;;;5022208;28;20471;-83
2022/10/04 13:34:26;;;;;;;73.10;5.50;;;19.10;17.50;;;;;;5021680;28;20404;-83
2022/10/04 13:36:57;;;;;;;71.40;5.00;;;19.10;16.50;;;;;;5040306;28;20380;-83
2022/10/04 13:39:35;;;;;;;68.47;5.03;;;19.20;18.60;;;;;;5021811;28;20431;-82
2022/10/04 13:42:14;;;;;;;72.47;5.57;;;19.30;20.10;;;;;;5022081;28;20410;-82
2022/10/04 13:44:55;;;;;;;67.47;5.20;;;19.30;17.00;;;;;;5022713;28;20404;-83
2022/10/04 13:47:45;;;;;;;69.57;5.40;;;19.20;16.90;;;;;;5039927;28;20795;-83
2022/10/04 13:50:13;;;;;;;67.60;4.50;;;19.20;18.60;;;;;;5040322;28;20393;-80
2022/10/04 13:58:56;;;;;;;71.00;5.60;;;19.30;22.10;;;;;;5037288;28;20411;-78